Time;durP1;ratioP1;P1;durP2;ratioP2;P2;SDS_P1;SDS_P2;PMS_P1;PMS_P2;Temp;Humidity;BMP_temperature;BMP_pressure;BME280_temperature;BME280_humidity;BME280_pressure;Samples;Min_cycle;Max_cycle;Signal;HPM_P1;HPM_P2
2022/05/24 00:01:37;;;;;;;;;;;;;;;;;;5053121;28;1885;-85
2022/05/24 00:04:03;;;;;;;;;;;;;;;;;;5064824;28;1163;-85
2022/05/24 00:06:30;;;;;;;;;;;;;;;;;;5031547;28;1314;-85
2022/05/24 00:08:56;;;;;;;;;;;;;;;;;;5052230;28;1161;-85
2022/05/24 00:11:21;;;;;;;;;;;;;;;;;;5046308;28;1338;-85
2022/05/24 00:13:47;;;;;;;;;;;;;;;;;;5056009;28;1188;-85
2022/05/24 00:16:12;;;;;;;;;;;;;;;;;;5065803;28;1034;-84
2022/05/24 00:18:37;;;;;;;;;;;;;;;;;;5074533;28;1216;-85
2022/05/24 00:21:03;;;;;;;;;;;;;;;;;;5052701;28;1906;-85
2022/05/24 00:23:29;;;;;;;;;;;;;;;;;;5054893;28;1331;-85
2022/05/24 00:25:58;;;;;;;;;;;;;;;;;;5058510;28;1297;-84
2022/05/24 00:28:24;;;;;;;;;;;;;;;;;;5055461;28;1219;-85
2022/05/24 00:30:50;;;;;;;;;;;;;;;;;;5055520;28;1281;-85
2022/05/24 00:33:16;;;;;;;;;;;;;;;;;;5065035;28;1250;-84
2022/05/24 00:35:42;;;;;;;;;;;;;;;;;;5055812;28;1385;-84
2022/05/24 00:38:09;;;;;;;;;;;;;;;;;;5048965;28;1253;-83
2022/05/24 00:41:01;;;;;;;;;;;;;;;;;;5067329;28;1287;-84
2022/05/24 00:43:46;;;;;;;;;;;;;;;;;;5049369;28;1894;-84
2022/05/24 00:46:15;;;;;;;;;;;;;;;;;;5048941;28;1339;-85
2022/05/24 00:49:00;;;;;;;;;;;;;;;;;;5054009;28;1416;-84
2022/05/24 00:51:34;;;;;;;;;;;;;;;;;;5066040;28;1264;-85
2022/05/24 00:54:00;;;;;;;;;;;;;;;;;;5058381;28;1375;-84
2022/05/24 00:56:31;;;;;;;;;;;;;;;;;;5065281;28;1157;-86
2022/05/24 00:59:20;;;;;;;;;;;;;;;;;;5054980;28;1333;-85
2022/05/24 01:01:47;;;;;;;;;;;;;;;;;;5043256;28;1941;-84
2022/05/24 01:04:14;;;;;;;;;;;;;;;;;;5046343;28;1440;-84
2022/05/24 01:06:39;;;;;;;;;;;;;;;;;;5060116;28;1386;-84
2022/05/24 01:09:10;;;;;;;;;;;;;;;;;;5062040;28;1111;-85
2022/05/24 01:11:38;;;;;;;;;;;;;;;;;;5061457;28;1141;-86
2022/05/24 01:14:05;;;;;;;;;;;;;;;;;;5066600;28;1227;-86
2022/05/24 01:16:30;;;;;;;;;;;;;;;;;;5058866;28;1151;-85
2022/05/24 01:19:06;;;;;;;;;;;;;;;;;;;;;
2022/05/24 01:21:32;;;;;;;;;;;;;;;;;;5080764;28;1972;-85
2022/05/24 01:24:17;;;;;;;;;;;;;;;;;;5067204;28;1306;-83
2022/05/24 01:26:50;;;;;;;;;;;;;;;;;;5064040;28;1437;-85
2022/05/24 01:29:17;;;;;;;;;;;;;;;;;;5055730;28;1154;-84
2022/05/24 01:37:11;;;;;;;;;;;;;;;;;;5065629;28;1021;-84
2022/05/24 01:39:38;;;;;;;;;;;;;;;;;;5052560;28;1278;-85
2022/05/24 01:42:04;;;;;;;;;;;;;;;;;;5048307;28;1902;-85
2022/05/24 01:44:47;;;;;;;;;;;;;;;;;;5070889;28;1110;-85
2022/05/24 01:47:14;;;;;;;;;;;;;;;;;;5050423;28;1224;-84
2022/05/24 01:49:41;;;;;;;;;;;;;;;;;;5048459;28;1304;-85
2022/05/24 01:52:17;;;;;;;;;;;;;;;;;;5065277;28;1111;-84
2022/05/24 01:54:45;;;;;;;;;;;;;;;;;;5053564;28;1307;-85
2022/05/24 01:57:13;;;;;;;;;;;;;;;;;;5077180;28;1184;-84
2022/05/24 01:59:39;;;;;;;;;;;;;;;;;;5084356;28;1229;-85
2022/05/24 02:02:04;;;;;;;;;;;;;;;;;;5050115;28;1973;-82
2022/05/24 02:04:32;;;;;;;;;;;;;;;;;;5070421;28;1212;-82
2022/05/24 02:06:57;;;;;;;;;;;;;;;;;;5063042;28;1658;-83
2022/05/24 02:09:22;;;;;;;;;;;;;;;;;;5083508;28;1160;-82
2022/05/24 02:11:48;;;;;;;;;;;;;;;;;;5057044;28;1258;-82
2022/05/24 02:14:17;;;;;;;;;;;;;;;;;;5058470;28;1181;-83
2022/05/24 02:16:47;;;;;;;;;;;;;;;;;;5065813;28;1335;-83
2022/05/24 02:19:13;;;;;;;;;;;;;;;;;;5063272;28;1203;-83
2022/05/24 02:21:40;;;;;;;;;;;;;;;;;;5054700;28;2021;-83
2022/05/24 02:24:38;;;;;;;;;;;;;;;;;;5055827;28;1231;-84
2022/05/24 02:27:04;;;;;;;;;;;;;;;;;;5036058;28;1454;-83
2022/05/24 02:29:31;;;;;;;;;;;;;;;;;;5062103;28;1229;-84
2022/05/24 02:31:56;;;;;;;;;;;;;;;;;;5051958;28;1358;-83
2022/05/24 02:34:22;;;;;;;;;;;;;;;;;;5052715;28;1137;-83
2022/05/24 02:36:47;;;;;;;;;;;;;;;;;;5056825;28;1184;-84
2022/05/24 02:39:12;;;;;;;;;;;;;;;;;;5063590;28;1188;-83
2022/05/24 02:41:38;;;;;;;;;;;;;;;;;;5060149;28;1909;-85
2022/05/24 02:44:21;;;;;;;;;;;;;;;;;;5075757;28;1204;-82
2022/05/24 02:46:47;;;;;;;;;;;;;;;;;;5082601;28;1197;-84
2022/05/24 02:49:12;;;;;;;;;;;;;;;;;;5062940;28;1302;-83
2022/05/24 02:51:39;;;;;;;;;;;;;;;;;;5046287;28;1394;-85
2022/05/24 02:54:11;;;;;;;;;;;;;;;;;;5078063;28;1080;-84
2022/05/24 02:56:36;;;;;;;;;;;;;;;;;;5076728;28;1086;-83
2022/05/24 02:59:02;;;;;;;;;;;;;;;;;;5057627;28;1224;-83
2022/05/24 03:01:28;;;;;;;;;;;;;;;;;;5056550;28;1905;-84
2022/05/24 03:03:54;;;;;;;;;;;;;;;;;;5055189;28;1216;-84
2022/05/24 03:06:20;;;;;;;;;;;;;;;;;;5056345;28;1204;-84
2022/05/24 03:14:14;;;;;;;;;;;;;;;;;;5071261;28;1061;-83
2022/05/24 03:14:19;;;;;;;;;;;;;;;;;;5068722;28;1223;-85
2022/05/24 03:16:46;;;;;;;;;;;;;;;;;;5077580;28;1176;-83
2022/05/24 03:19:14;;;;;;;;;;;;;;;;;;5058461;28;1243;-83
2022/05/24 03:21:40;;;;;;;;;;;;;;;;;;5060780;28;1949;-84
2022/05/24 03:24:05;;;;;;;;;;;;;;;;;;5065252;28;1281;-83
2022/05/24 03:26:30;;;;;;;;;;;;;;;;;;5075211;28;1105;-84
2022/05/24 03:28:55;;;;;;;;;;;;;;;;;;5056752;28;1141;-83
2022/05/24 03:31:21;;;;;;;;;;;;;;;;;;5069651;28;1180;-84
2022/05/24 03:33:46;;;;;;;;;;;;;;;;;;5060132;28;1271;-83
2022/05/24 03:36:20;;;;;;;;;;;;;;;;;;5084910;28;1177;-83
2022/05/24 03:38:49;;;;;;;;;;;;;;;;;;5057173;28;1160;-84
2022/05/24 03:41:16;;;;;;;;;;;;;;;;;;5049040;28;1969;-84
2022/05/24 03:43:41;;;;;;;;;;;;;;;;;;5059348;28;1275;-85
2022/05/24 03:46:08;;;;;;;;;;;;;;;;;;5066337;28;1239;-84
2022/05/24 03:48:34;;;;;;;;;;;;;;;;;;5051417;28;1156;-84
2022/05/24 03:50:59;;;;;;;;;;;;;;;;;;5072596;28;1212;-84
2022/05/24 03:53:25;;;;;;;;;;;;;;;;;;5052502;28;1081;-82
2022/05/24 03:55:51;;;;;;;;;;;;;;;;;;5069116;28;1349;-83
2022/05/24 03:58:19;;;;;;;;;;;;;;;;;;5083101;28;1199;-83
2022/05/24 04:00:45;;;;;;;;;;;;;;;;;;5053552;28;1192;-84
2022/05/24 04:03:11;;;;;;;;;;;;;;;;;;5064362;28;1949;-84
2022/05/24 04:05:37;;;;;;;;;;;;;;;;;;5077887;28;1249;-83
2022/05/24 04:08:02;;;;;;;;;;;;;;;;;;5050237;28;1297;-84
2022/05/24 04:10:29;;;;;;;;;;;;;;;;;;5078451;28;1188;-83
2022/05/24 04:12:54;;;;;;;;;;;;;;;;;;5049086;28;1153;-85
2022/05/24 04:15:23;;;;;;;;;;;;;;;;;;5061878;28;1184;-83
2022/05/24 04:17:50;;;;;;;;;;;;;;;;;;5062980;28;1385;-83
2022/05/24 04:20:21;;;;;;;;;;;;;;;;;;5042637;28;1290;-83
2022/05/24 04:22:56;;;;;;;;;;;;;;;;;;5064346;28;1917;-82
2022/05/24 04:25:21;;;;;;;;;;;;;;;;;;5070808;28;1117;-83
2022/05/24 04:27:47;;;;;;;;;;;;;;;;;;5077340;28;1105;-84
2022/05/24 04:30:13;;;;;;;;;;;;;;;;;;5066026;28;1275;-84
2022/05/24 04:32:38;;;;;;;;;;;;;;;;;;5078194;28;1121;-84
2022/05/24 04:35:04;;;;;;;;;;;;;;;;;;5088775;28;1144;-83
2022/05/24 04:37:29;;;;;;;;;;;;;;;;;;5062850;28;1190;-83
2022/05/24 04:39:54;;;;;;;;;;;;;;;;;;5069597;28;1153;-83
2022/05/24 04:42:22;;;;;;;;;;;;;;;;;;5073610;28;1916;-84
2022/05/24 04:44:55;;;;;;;;;;;;;;;;;;5055014;28;1125;-84
2022/05/24 04:47:24;;;;;;;;;;;;;;;;;;5072652;28;1172;-84
2022/05/24 04:49:53;;;;;;;;;;;;;;;;;;5052107;28;1668;-85
2022/05/24 04:52:23;;;;;;;;;;;;;;;;;;5058358;28;1490;-86
2022/05/24 04:54:49;;;;;;;;;;;;;;;;;;5061215;28;1363;-82
2022/05/24 04:57:15;;;;;;;;;;;;;;;;;;5052968;28;1199;-84
2022/05/24 04:59:40;;;;;;;;;;;;;;;;;;5048762;28;1096;-83
2022/05/24 05:02:06;;;;;;;;;;;;;;;;;;5080154;28;1887;-84
2022/05/24 05:04:31;;;;;;;;;;;;;;;;;;5048697;28;1305;-84
2022/05/24 05:06:56;;;;;;;;;;;;;;;;;;5055151;28;1147;-83
2022/05/24 05:09:38;;;;;;;;;;;;;;;;;;5055447;28;1285;-84
2022/05/24 05:12:04;;;;;;;;;;;;;;;;;;5071461;28;1049;-83
2022/05/24 05:14:29;;;;;;;;;;;;;;;;;;5049757;28;1165;-83
2022/05/24 05:16:54;;;;;;;;;;;;;;;;;;5081534;28;1160;-85
2022/05/24 05:19:21;;;;;;;;;;;;;;;;;;5058666;28;1144;-83
2022/05/24 05:21:46;;;;;;;;;;;;;;;;;;5054336;28;1934;-84
2022/05/24 05:24:12;;;;;;;;;;;;;;;;;;5087461;28;1129;-84
2022/05/24 05:26:37;;;;;;;;;;;;;;;;;;5071032;28;1349;-84
2022/05/24 05:29:03;;;;;;;;;;;;;;;;;;5051730;28;1604;-84
2022/05/24 05:31:28;;;;;;;;;;;;;;;;;;5059686;28;1512;-84
2022/05/24 05:33:58;;;;;;;;;;;;;;;;;;5061437;28;1516;-84
2022/05/24 05:36:33;;;;;;;;;;;;;;;;;;5069059;28;1141;-84
2022/05/24 05:38:59;;;;;;;;;;;;;;;;;;5073972;28;1073;-85
2022/05/24 05:41:34;;;;;;;;;;;;;;;;;;5053478;28;1916;-84
2022/05/24 05:44:00;;;;;;;;;;;;;;;;;;5062619;28;1416;-84
2022/05/24 05:46:26;;;;;;;;;;;;;;;;;;5041913;28;1255;-84
2022/05/24 05:48:51;;;;;;;;;;;;;;;;;;5066273;28;1176;-84
2022/05/24 05:51:18;;;;;;;;;;;;;;;;;;5047408;28;1478;-84
2022/05/24 05:53:44;;;;;;;;;;;;;;;;;;5077372;28;1109;-85
2022/05/24 05:56:19;;;;;;;;;;;;;;;;;;5067051;28;1406;-85
2022/05/24 05:58:45;;;;;;;;;;;;;;;;;;5064165;28;1142;-83
2022/05/24 06:01:28;;;;;;;;;;;;;;;;;;5058925;28;1204;-86
2022/05/24 06:03:53;;;;;;;;;;;;;;;;;;5053400;28;1177;-81
2022/05/24 06:06:21;;;;;;;;;;;;;;;;;;5080861;28;1303;-83
2022/05/24 06:08:47;;;;;;;;;;;;;;;;;;5050481;28;1199;-84
2022/05/24 06:11:15;;;;;;;;;;;;;;;;;;5066180;28;1187;-83
2022/05/24 06:13:41;;;;;;;;;;;;;;;;;;5081061;28;1149;-85
2022/05/24 06:16:08;;;;;;;;;;;;;;;;;;5052449;28;1205;-85
2022/05/24 06:18:35;;;;;;;;;;;;;;;;;;5074115;28;1275;-84
2022/05/24 06:21:00;;;;;;;;;;;;;;;;;;5061979;28;1199;-86
2022/05/24 06:23:34;;;;;;;;;;;;;;;;;;5045157;28;1906;-86
2022/05/24 06:26:00;;;;;;;;;;;;;;;;;;5069300;28;1274;-86
2022/05/24 06:28:28;;;;;;;;;;;;;;;;;;5057714;28;1252;-85
2022/05/24 06:30:54;;;;;;;;;;;;;;;;;;5048276;28;1118;-85
2022/05/24 06:33:19;;;;;;;;;;;;;;;;;;5045519;28;1472;-86
2022/05/24 06:35:45;;;;;;;;;;;;;;;;;;5072092;28;1203;-84
2022/05/24 06:38:10;;;;;;;;;;;;;;;;;;5055507;28;1216;-86
2022/05/24 06:40:36;;;;;;;;;;;;;;;;;;5061169;28;1386;-79
2022/05/24 06:43:02;;;;;;;;;;;;;;;;;;5064070;28;1949;-81
2022/05/24 06:45:34;;;;;;;;;;;;;;;;;;5059503;28;1157;-84
2022/05/24 06:47:59;;;;;;;;;;;;;;;;;;5060139;28;1278;-84
2022/05/24 06:50:25;;;;;;;;;;;;;;;;;;5055527;28;1290;-85
2022/05/24 06:52:57;;;;;;;;;;;;;;;;;;5057852;28;1374;-84
2022/05/24 06:55:23;;;;;;;;;;;;;;;;;;5078548;28;1172;-85
2022/05/24 06:57:49;;;;;;;;;;;;;;;;;;5053096;28;1359;-85
2022/05/24 07:03:03;;;;;;;;;;;;;;;;;;5079121;28;1886;-86
2022/05/24 07:05:32;;;;;;;;;;;;;;;;;;5057357;28;1336;-86
2022/05/24 07:08:00;;;;;;;;;;;;;;;;;;5049527;28;1192;-84
2022/05/24 07:10:26;;;;;;;;;;;;;;;;;;5080111;28;1215;-84
2022/05/24 07:13:18;;;;;;;;;;;;;;;;;;5079042;28;1191;-86
2022/05/24 07:15:43;;;;;;;;;;;;;;;;;;5067954;28;1166;-85
2022/05/24 07:18:08;;;;;;;;;;;;;;;;;;5070089;28;1164;-86
2022/05/24 07:20:37;;;;;;;;;;;;;;;;;;5055630;28;1209;-79
2022/05/24 07:23:09;;;;;;;;;;;;;;;;;;5081534;28;1910;-80
2022/05/24 07:25:35;;;;;;;;;;;;;;;;;;5072982;28;1117;-84
2022/05/24 07:28:02;;;;;;;;;;;;;;;;;;5057974;28;1125;-88
2022/05/24 07:30:27;;;;;;;;;;;;;;;;;;5052285;28;1149;-77
2022/05/24 07:32:52;;;;;;;;;;;;;;;;;;5047770;28;1164;-82
2022/05/24 07:35:17;;;;;;;;;;;;;;;;;;5076147;28;1212;-80
2022/05/24 07:37:43;;;;;;;;;;;;;;;;;;5056818;28;1174;-82
2022/05/24 07:48:13;;;;;;;;;;;;;;;;;;5064371;28;1065;-80
2022/05/24 07:50:39;;;;;;;;;;;;;;;;;;5071045;28;1172;-81
2022/05/24 07:53:05;;;;;;;;;;;;;;;;;;5068065;28;1215;-81
2022/05/24 07:55:30;;;;;;;;;;;;;;;;;;5071805;28;1359;-82
2022/05/24 07:57:55;;;;;;;;;;;;;;;;;;5048954;28;1192;-83
2022/05/24 08:00:21;;;;;;;;;;;;;;;;;;5050792;28;1177;-82
2022/05/24 08:02:50;;;;;;;;;;;;;;;;;;5047808;28;1951;-80
2022/05/24 08:05:17;;;;;;;;;;;;;;;;;;5058515;28;1304;-80
2022/05/24 08:08:02;;;;;;;;;;;;;;;;;;5074579;28;1197;-83
2022/05/24 08:10:29;;;;;;;;;;;;;;;;;;5070247;28;1341;-85
2022/05/24 08:12:54;;;;;;;;;;;;;;;;;;5065814;28;1361;-82
2022/05/24 08:15:20;;;;;;;;;;;;;;;;;;5061482;28;1164;-83
2022/05/24 08:17:51;;;;;;;;;;;;;;;;;;5051273;28;1271;-82
2022/05/24 08:20:17;;;;;;;;;;;;;;;;;;5059626;28;1301;-82
2022/05/24 08:23:03;;;;;;;;;;;;;;;;;;5066448;28;2059;-80
2022/05/24 08:25:30;;;;;;;;;;;;;;;;;;5048318;28;1224;-82
2022/05/24 08:27:56;;;;;;;;;;;;;;;;;;5046835;28;1298;-81
2022/05/24 08:30:22;;;;;;;;;;;;;;;;;;5067922;28;1363;-81
2022/05/24 08:32:48;;;;;;;;;;;;;;;;;;5048770;28;1191;-81
2022/05/24 08:35:15;;;;;;;;;;;;;;;;;;5063552;28;1314;-82
2022/05/24 08:37:59;;;;;;;;;;;;;;;;;;5088925;28;857;-81
2022/05/24 08:40:24;;;;;;;;;;;;;;;;;;5090099;28;806;-80
2022/05/24 08:43:05;;;;;;;;;;;;;;;;;;5065715;28;1957;-80
2022/05/24 08:48:29;;;;;;;;;;;;;;;;;;5088145;28;730;-83
2022/05/24 08:50:58;;;;;;;;;;;;;;;;;;5087046;28;917;-82
2022/05/24 08:53:26;;;;;;;;;;;;;;;;;;5087583;28;826;-80
2022/05/24 08:55:51;;;;;;;;;;;;;;;;;;5068650;28;1091;-81
2022/05/24 08:58:30;;;;;;;;;;;;;;;;;;5051621;28;1715;-80
2022/05/24 09:00:56;;;;;;;;;;;;;;;;;;5068723;28;1184;-81
2022/05/24 09:03:24;;;;;;;;;;;;;;;;;;5051788;28;1878;-80
2022/05/24 09:05:55;;;;;;;;;;;;;;;;;;5086159;28;1290;-81
2022/05/24 09:08:34;;;;;;;;;;;;;;;;;;5087218;28;1240;-81
2022/05/24 09:11:20;;;;;;;;;;;;;;;;;;5066615;28;1124;-81
2022/05/24 09:13:45;;;;;;;;;;;;;;;;;;5068692;28;1302;-81
2022/05/24 09:16:13;;;;;;;;;;;;;;;;;;5067575;28;1180;-81
2022/05/24 09:18:57;;;;;;;;;;;;;;;;;;5068746;28;1464;-81
2022/05/24 09:21:26;;;;;;;;;;;;;;;;;;5068826;28;1189;-81
2022/05/24 09:24:01;;;;;;;;;;;;;;;;;;5057252;28;1125;-81
2022/05/24 09:26:27;;;;;;;;;;;;;;;;;;5064792;28;1176;-81
2022/05/24 09:28:57;;;;;;;;;;;;;;;;;;5065230;28;1197;-81
2022/05/24 09:31:26;;;;;;;;;;;;;;;;;;5067992;28;1339;-81
2022/05/24 09:33:56;;;;;;;;;;;;;;;;;;5066727;28;1372;-82
2022/05/24 09:36:27;;;;;;;;;;;;;;;;;;5086537;28;1124;-81
2022/05/24 09:38:52;;;;;;;;;;;;;;;;;;5084168;28;1299;-80
2022/05/24 09:41:19;;;;;;;;;;;;;;;;;;5066292;28;1215;-80
2022/05/24 09:43:57;;;;;;;;;;;;;;;;;;5068464;28;1882;-84
2022/05/24 09:46:24;;;;;;;;;;;;;;;;;;5050122;28;1692;-80
2022/05/24 09:48:56;;;;;;;;;;;;;;;;;;5045802;28;976;-81
2022/05/24 09:51:27;;;;;;;;;;;;;;;;;;5045373;28;1352;-83
2022/05/24 09:53:54;;;;;;;;;;;;;;;;;;5045411;28;965;-83
2022/05/24 09:56:22;;;;;;;;;;;;;;;;;;5058318;28;827;-82
2022/05/24 09:58:54;;;;;;;;;;;;;;;;;;5044902;28;858;-84
2022/05/24 10:01:30;;;;;;;;;;;;;;;;;;5045411;28;1172;-82
2022/05/24 10:04:08;;;;;;;;;;;;;;;;;;5065053;28;1200;-82
2022/05/24 10:06:33;;;;;;;;;;;;;;;;;;5065207;28;1122;-83
2022/05/24 10:08:58;;;;;;;;;;;;;;;;;;5060670;28;1085;-81
2022/05/24 10:11:43;;;;;;;;;;;;;;;;;;5059543;28;1045;-81
2022/05/24 10:14:28;;;;;;;;;;;;;;;;;;5063496;28;1188;-81
2022/05/24 10:17:03;;;;;;;;;;;;;;;;;;5066670;28;1148;-80
2022/05/24 10:20:07;;;;;;;;;;;;;;;;;;5046316;28;1430;-79
2022/05/24 10:22:35;;;;;;;;;;;;;;;;;;5051161;28;1967;-78
2022/05/24 10:25:16;;;;;;;;;;;;;;;;;;5065322;28;1226;-78
2022/05/24 10:27:59;;;;;;;;;;;;;;;;;;5051588;28;1242;-77
2022/05/24 10:30:29;;;;;;;;;;;;;;;;;;5066585;28;1311;-79
2022/05/24 10:39:11;;;;;;;;;;;;;;;;;;5082887;28;1001;-78
2022/05/24 10:41:39;;;;;;;;;;;;;;;;;;5065063;28;1898;-77
2022/05/24 10:44:13;;;;;;;;;;;;;;;;;;5068262;28;1117;-78
2022/05/24 10:46:44;;;;;;;;;;;;;;;;;;5070129;28;1181;-81
2022/05/24 10:49:26;;;;;;;;;;;;;;;;;;5053182;28;1342;-80
2022/05/24 10:52:00;;;;;;;;;;;;;;;;;;5086666;28;1235;-81
2022/05/24 10:54:35;;;;;;;;;;;;;;;;;;5066483;28;1231;-83
2022/05/24 10:57:06;;;;;;;;;;;;;;;;;;5046816;28;1133;-80
2022/05/24 10:59:56;;;;;;;;;;;;;;;;;;5067140;28;1177;-80
2022/05/24 11:02:28;;;;;;;;;;;;;;;;;;5070567;28;1890;-81
2022/05/24 11:04:59;;;;;;;;;;;;;;;;;;5046853;28;1216;-80
2022/05/24 11:07:26;;;;;;;;;;;;;;;;;;5065380;28;1102;-81
2022/05/24 11:10:05;;;;;;;;;;;;;;;;;;5045111;28;1180;-81
2022/05/24 11:12:35;;;;;;;;;;;;;;;;;;5071979;28;1157;-81
2022/05/24 11:15:05;;;;;;;;;;;;;;;;;;5083403;28;1207;-82
2022/05/24 11:17:30;;;;;;;;;;;;;;;;;;5060597;28;1314;-81
2022/05/24 11:19:56;;;;;;;;;;;;;;;;;;5057044;28;1188;-81
2022/05/24 11:22:28;;;;;;;;;;;;;;;;;;5050437;28;1910;-81
2022/05/24 11:24:54;;;;;;;;;;;;;;;;;;5045813;28;1225;-82
2022/05/24 11:27:39;;;;;;;;;;;;;;;;;;5052035;28;1250;-85
2022/05/24 11:30:08;;;;;;;;;;;;;;;;;;5062634;28;1660;-80
2022/05/24 11:32:51;;;;;;;;;;;;;;;;;;5084932;28;1164;-83
2022/05/24 11:35:19;;;;;;;;;;;;;;;;;;5066703;28;1303;-81
2022/05/24 11:37:53;;;;;;;;;;;;;;;;;;5084661;28;1191;-80
2022/05/24 11:40:30;;;;;;;;;;;;;;;;;;5057302;28;1221;-82
2022/05/24 11:42:58;;;;;;;;;;;;;;;;;;5047313;28;1953;-83
2022/05/24 11:45:29;;;;;;;;;;;;;;;;;;5061542;28;1310;-81
2022/05/24 11:48:03;;;;;;;;;;;;;;;;;;5061307;28;1102;-81
2022/05/24 11:50:31;;;;;;;;;;;;;;;;;;5050684;28;1145;-82
2022/05/24 11:53:03;;;;;;;;;;;;;;;;;;5061660;28;1113;-85
2022/05/24 11:55:43;;;;;;;;;;;;;;;;;;5064005;28;1396;-85
2022/05/24 11:58:21;;;;;;;;;;;;;;;;;;5051553;28;1462;-85
2022/05/24 12:01:08;;;;;;;;;;;;;;;;;;5073730;28;1215;-85
2022/05/24 12:09:15;;;;;;;;;;;;;;;;;;5080873;28;997;-84
2022/05/24 12:11:40;;;;;;;;;;;;;;;;;;5076176;28;1121;-84
2022/05/24 12:14:38;;;;;;;;;;;;;;;;;;5083100;28;1145;-84
2022/05/24 12:17:06;;;;;;;;;;;;;;;;;;5028653;28;1520;-85
2022/05/24 12:19:38;;;;;;;;;;;;;;;;;;5059131;28;1184;-81
2022/05/24 12:22:03;;;;;;;;;;;;;;;;;;5084440;28;1975;-80
2022/05/24 12:24:28;;;;;;;;;;;;;;;;;;5084582;28;1173;-79
2022/05/24 12:27:12;;;;;;;;;;;;;;;;;;5084264;28;1303;-79
2022/05/24 12:29:40;;;;;;;;;;;;;;;;;;5084868;28;1243;-79
2022/05/24 12:32:05;;;;;;;;;;;;;;;;;;5082855;28;1081;-80
2022/05/24 12:34:32;;;;;;;;;;;;;;;;;;5065782;28;1145;-80
2022/05/24 12:37:09;;;;;;;;;;;;;;;;;;5083482;28;1136;-80
2022/05/24 12:39:35;;;;;;;;;;;;;;;;;;5078458;28;1168;-80
2022/05/24 12:42:05;;;;;;;;;;;;;;;;;;5046660;28;1898;-79
2022/05/24 12:44:32;;;;;;;;;;;;;;;;;;5067345;28;1066;-81
2022/05/24 12:47:06;;;;;;;;;;;;;;;;;;5068152;28;1156;-81
2022/05/24 12:49:36;;;;;;;;;;;;;;;;;;5065357;28;1219;-77
2022/05/24 12:52:01;;;;;;;;;;;;;;;;;;5067308;28;1365;-80
2022/05/24 12:54:29;;;;;;;;;;;;;;;;;;5045877;28;1265;-80
2022/05/24 12:56:55;;;;;;;;;;;;;;;;;;5074511;28;1145;-80
2022/05/24 12:59:27;;;;;;;;;;;;;;;;;;5066816;28;1360;-80
2022/05/24 13:01:54;;;;;;;;;;;;;;;;;;5069735;28;1940;-80
2022/05/24 13:04:21;;;;;;;;;;;;;;;;;;5068839;28;1320;-82
2022/05/24 13:06:48;;;;;;;;;;;;;;;;;;5059302;28;1389;-81
2022/05/24 13:09:16;;;;;;;;;;;;;;;;;;5045160;28;1400;-79
2022/05/24 13:11:43;;;;;;;;;;;;;;;;;;5049713;28;1407;-79
2022/05/24 13:14:19;;;;;;;;;;;;;;;;;;5082709;28;1152;-81
2022/05/24 13:16:45;;;;;;;;;;;;;;;;;;5080469;28;1101;-81
2022/05/24 13:19:11;;;;;;;;;;;;;;;;;;5065520;28;1065;-80
2022/05/24 13:21:36;;;;;;;;;;;;;;;;;;5049454;28;1910;-80
2022/05/24 13:24:07;;;;;;;;;;;;;;;;;;5045804;28;1153;-82
2022/05/24 13:26:33;;;;;;;;;;;;;;;;;;5065180;28;1076;-80
2022/05/24 13:29:18;;;;;;;;;;;;;;;;;;5063974;28;1188;-80
2022/05/24 13:34:32;;;;;;;;;;;;;;;;;;5065425;28;1032;-82
2022/05/24 13:36:59;;;;;;;;;;;;;;;;;;5065367;28;1156;-80
2022/05/24 13:39:26;;;;;;;;;;;;;;;;;;5044439;28;1327;-81
2022/05/24 13:41:57;;;;;;;;;;;;;;;;;;5065776;28;1893;-81
2022/05/24 13:44:23;;;;;;;;;;;;;;;;;;5061983;28;1153;-81
2022/05/24 13:46:51;;;;;;;;;;;;;;;;;;5063820;28;1195;-81
2022/05/24 13:49:28;;;;;;;;;;;;;;;;;;5085052;28;1117;-81
2022/05/24 13:51:54;;;;;;;;;;;;;;;;;;5085413;28;1205;-82
2022/05/24 13:54:32;;;;;;;;;;;;;;;;;;5078283;28;1077;-80
2022/05/24 13:56:58;;;;;;;;;;;;;;;;;;5062597;28;1146;-82
2022/05/24 13:59:23;;;;;;;;;;;;;;;;;;5078108;28;1191;-82
2022/05/24 14:01:54;;;;;;;;;;;;;;;;;;5078777;28;1890;-81
2022/05/24 14:04:24;;;;;;;;;;;;;;;;;;5054808;28;1338;-80
2022/05/24 14:06:51;;;;;;;;;;;;;;;;;;5059552;28;1417;-81
2022/05/24 14:09:17;;;;;;;;;;;;;;;;;;5071624;28;1161;-81
2022/05/24 14:11:48;;;;;;;;;;;;;;;;;;5061275;28;1145;-79
2022/05/24 14:14:13;;;;;;;;;;;;;;;;;;5067155;28;1307;-79
2022/05/24 14:16:39;;;;;;;;;;;;;;;;;;5048855;28;1403;-82
2022/05/24 14:19:04;;;;;;;;;;;;;;;;;;5075512;28;1412;-80
2022/05/24 14:21:30;;;;;;;;;;;;;;;;;;5066093;28;1326;-81
2022/05/24 14:23:55;;;;;;;;;;;;;;;;;;5065389;28;1914;-82
2022/05/24 14:26:21;;;;;;;;;;;;;;;;;;5065778;28;1163;-80
2022/05/24 14:28:46;;;;;;;;;;;;;;;;;;5044719;28;1261;-82
2022/05/24 14:31:15;;;;;;;;;;;;;;;;;;5073673;28;1259;-79
2022/05/24 14:33:40;;;;;;;;;;;;;;;;;;5066912;28;1105;-79
2022/05/24 14:36:06;;;;;;;;;;;;;;;;;;5066717;28;1110;-79
2022/05/24 14:38:32;;;;;;;;;;;;;;;;;;5081068;28;1196;-80
2022/05/24 14:41:16;;;;;;;;;;;;;;;;;;5053914;28;1310;-80
2022/05/24 14:43:44;;;;;;;;;;;;;;;;;;5056369;28;1965;-85
2022/05/24 14:46:16;;;;;;;;;;;;;;;;;;5076036;28;1141;-83
2022/05/24 14:48:42;;;;;;;;;;;;;;;;;;5074257;28;1142;-83
2022/05/24 14:51:08;;;;;;;;;;;;;;;;;;5053052;28;1362;-83
2022/05/24 14:53:35;;;;;;;;;;;;;;;;;;5034338;28;1247;-82
2022/05/24 14:56:00;;;;;;;;;;;;;;;;;;5057708;28;1222;-84
2022/05/24 14:58:26;;;;;;;;;;;;;;;;;;5070567;28;1034;-85
2022/05/24 15:00:51;;;;;;;;;;;;;;;;;;5069650;28;1168;-84
2022/05/24 15:03:17;;;;;;;;;;;;;;;;;;5064098;28;1961;-82
2022/05/24 15:05:42;;;;;;;;;;;;;;;;;;5051786;28;1323;-82
2022/05/24 15:16:22;;;;;;;;;;;;;;;;;;5072785;28;1055;-82
2022/05/24 15:18:48;;;;;;;;;;;;;;;;;;5048889;28;1255;-81
2022/05/24 15:21:19;;;;;;;;;;;;;;;;;;5052321;28;1180;-86
2022/05/24 15:23:46;;;;;;;;;;;;;;;;;;5052807;28;1919;-81
2022/05/24 15:26:15;;;;;;;;;;;;;;;;;;5059617;28;1293;-81
2022/05/24 15:28:43;;;;;;;;;;;;;;;;;;5067654;28;1297;-80
2022/05/24 15:31:09;;;;;;;;;;;;;;;;;;5085999;28;1125;-79
2022/05/24 15:33:34;;;;;;;;;;;;;;;;;;5046651;28;1362;-78
2022/05/24 15:35:59;;;;;;;;;;;;;;;;;;5046146;28;1129;-78
2022/05/24 15:38:24;;;;;;;;;;;;;;;;;;5074491;28;1145;-82
2022/05/24 15:40:50;;;;;;;;;;;;;;;;;;5042522;28;1270;-78
2022/05/24 15:43:19;;;;;;;;;;;;;;;;;;5046257;28;1882;-77
2022/05/24 15:45:46;;;;;;;;;;;;;;;;;;5061070;28;1232;-77
2022/05/24 15:48:12;;;;;;;;;;;;;;;;;;5057285;28;952;-78
2022/05/24 15:50:37;;;;;;;;;;;;;;;;;;5041545;28;1181;-78
2022/05/24 15:53:02;;;;;;;;;;;;;;;;;;5073070;28;1073;-75
2022/05/24 15:55:28;;;;;;;;;;;;;;;;;;5038348;28;1034;-76
2022/05/24 15:57:54;;;;;;;;;;;;;;;;;;5044357;28;1201;-77
2022/05/24 16:00:21;;;;;;;;;;;;;;;;;;5059214;28;1288;-76
2022/05/24 16:02:50;;;;;;;;;;;;;;;;;;5062126;28;1890;-79
2022/05/24 16:10:44;;;;;;;;;;;;;;;;;;5058649;28;1025;-77
2022/05/24 16:13:12;;;;;;;;;;;;;;;;;;5063163;28;1264;-78
2022/05/24 16:15:38;;;;;;;;;;;;;;;;;;5063311;28;1285;-77
2022/05/24 16:18:06;;;;;;;;;;;;;;;;;;5054976;28;1259;-78
2022/05/24 16:20:34;;;;;;;;;;;;;;;;;;5073798;28;1101;-78
2022/05/24 16:23:00;;;;;;;;;;;;;;;;;;5077576;28;1980;-78
2022/05/24 16:25:25;;;;;;;;;;;;;;;;;;5051242;28;1335;-78
2022/05/24 16:27:52;;;;;;;;;;;;;;;;;;5061735;28;1169;-77
2022/05/24 16:30:17;;;;;;;;;;;;;;;;;;5071966;28;1136;-80
2022/05/24 16:32:43;;;;;;;;;;;;;;;;;;5065352;28;1188;-76
2022/05/24 16:35:08;;;;;;;;;;;;;;;;;;5048404;28;1236;-82
2022/05/24 16:37:33;;;;;;;;;;;;;;;;;;5068351;28;1087;-82
2022/05/24 16:39:59;;;;;;;;;;;;;;;;;;5044473;28;1278;-80
2022/05/24 16:42:27;;;;;;;;;;;;;;;;;;5037992;28;1877;-80
2022/05/24 16:44:52;;;;;;;;;;;;;;;;;;5039541;28;1188;-79
2022/05/24 16:47:18;;;;;;;;;;;;;;;;;;5080018;28;1133;-79
2022/05/24 16:49:43;;;;;;;;;;;;;;;;;;5061249;28;1022;-79
2022/05/24 16:52:12;;;;;;;;;;;;;;;;;;5044111;28;1192;-79
2022/05/24 17:00:12;;;;;;;;;;;;;;;;;;5063746;28;958;-78
2022/05/24 17:02:47;;;;;;;;;;;;;;;;;;5057656;28;1886;-80
2022/05/24 17:05:13;;;;;;;;;;;;;;;;;;5061477;28;1286;-78
2022/05/24 17:07:38;;;;;;;;;;;;;;;;;;5075479;28;1161;-78
2022/05/24 17:10:05;;;;;;;;;;;;;;;;;;5052105;28;1177;-79
2022/05/24 17:12:30;;;;;;;;;;;;;;;;;;5027579;28;1073;-79
2022/05/24 17:14:55;;;;;;;;;;;;;;;;;;5044879;28;1141;-77
2022/05/24 17:17:21;;;;;;;;;;;;;;;;;;5068018;28;1157;-76
2022/05/24 17:19:46;;;;;;;;;;;;;;;;;;5063615;28;1124;-85
2022/05/24 17:22:11;;;;;;;;;;;;;;;;;;5066301;28;1930;-74
2022/05/24 17:24:37;;;;;;;;;;;;;;;;;;5060228;28;1192;-73
2022/05/24 17:27:02;;;;;;;;;;;;;;;;;;5062996;28;1188;-75
2022/05/24 17:29:28;;;;;;;;;;;;;;;;;;5066474;28;1188;-74
2022/05/24 17:31:57;;;;;;;;;;;;;;;;;;5048913;28;1378;-74
2022/05/24 17:34:22;;;;;;;;;;;;;;;;;;5067507;28;1243;-76
2022/05/24 17:36:47;;;;;;;;;;;;;;;;;;5064869;28;1022;-74
2022/05/24 17:39:12;;;;;;;;;;;;;;;;;;5043746;28;1173;-75
2022/05/24 17:41:38;;;;;;;;;;;;;;;;;;5044008;28;1555;-74
2022/05/24 17:44:03;;;;;;;;;;;;;;;;;;5063615;28;1894;-75
2022/05/24 17:46:29;;;;;;;;;;;;;;;;;;5066133;28;1061;-74
2022/05/24 17:48:54;;;;;;;;;;;;;;;;;;5047557;28;1346;-74
2022/05/24 17:51:20;;;;;;;;;;;;;;;;;;5067035;28;1315;-75
2022/05/24 17:53:48;;;;;;;;;;;;;;;;;;5068881;28;1113;-85
2022/05/24 17:56:15;;;;;;;;;;;;;;;;;;5056742;28;1416;-85
2022/05/24 17:58:40;;;;;;;;;;;;;;;;;;5063740;28;1410;-82
2022/05/24 18:01:08;;;;;;;;;;;;;;;;;;5068756;28;1205;-83
2022/05/24 18:03:35;;;;;;;;;;;;;;;;;;5046793;28;1890;-82
2022/05/24 18:06:01;;;;;;;;;;;;;;;;;;5083405;28;1168;-84
2022/05/24 18:08:27;;;;;;;;;;;;;;;;;;5065409;28;1101;-82
2022/05/24 18:10:52;;;;;;;;;;;;;;;;;;5070265;28;1240;-83